Time;durP1;ratioP1;P1;durP2;ratioP2;P2;SDS_P1;SDS_P2;PMS_P1;PMS_P2;Temp;Humidity;BMP_temperature;BMP_pressure;BME280_temperature;BME280_humidity;BME280_pressure;Samples;Min_cycle;Max_cycle;Signal;HPM_P1;HPM_P2
2023/12/07 00:00:38;;;;;;;;;;;6.30;57.20;;;4.59;61.35;101339.03;12244878;19;19970;-88
2023/12/07 00:04:39;;;;;;;;;;;6.30;57.20;;;4.62;61.43;101348.47;12244939;19;19986;-89
2023/12/07 00:08:41;;;;;;;;;;;6.30;57.20;;;4.68;61.47;101366.44;12246030;19;19923;-88
2023/12/07 00:12:43;;;;;;;;;;;6.30;57.10;;;4.65;61.29;101363.94;12245746;19;19929;-89
2023/12/07 00:16:44;;;;;;;;;;;6.30;57.20;;;4.59;61.32;101364.91;12242718;19;19940;-88
2023/12/07 00:20:45;;;;;;;;;;;6.30;57.20;;;4.68;61.58;101368.19;12244746;19;19910;-88
2023/12/07 00:24:47;;;;;;;;;;;6.30;57.20;;;4.65;61.38;101366.50;12257032;19;20266;-88
2023/12/07 00:28:49;;;;;;;;;;;6.50;57.30;;;4.42;61.34;101339.34;12257760;19;20002;-88
2023/12/07 00:32:50;;;;;;;;;;;6.30;57.20;;;4.67;61.51;101377.66;12257165;19;19911;-88
2023/12/07 00:36:52;;;;;;;;;;;6.30;57.20;;;4.69;61.61;101381.06;12258011;19;19943;-88
2023/12/07 00:40:53;;;;;;;;;;;6.50;57.30;;;4.59;61.55;101361.44;12254688;19;20308;-88
2023/12/07 00:44:55;;;;;;;;;;;6.30;57.20;;;4.53;61.56;101353.81;12256741;19;19954;-88
2023/12/07 00:48:57;;;;;;;;;;;6.30;57.20;;;4.62;61.43;101371.75;12257183;19;19935;-88
2023/12/07 00:52:58;;;;;;;;;;;6.30;57.20;;;4.40;61.55;101338.56;12256626;19;19922;-88
2023/12/07 00:57:00;;;;;;;;;;;6.20;57.20;;;4.58;61.66;101377.84;12255562;19;19925;-88
2023/12/07 01:01:01;;;;;;;;;;;6.30;57.20;;;4.58;61.53;101373.53;12252950;19;19926;-88
2023/12/07 01:05:03;;;;;;;;;;;6.30;57.20;;;4.58;61.38;101367.50;12253457;19;19918;-88
2023/12/07 01:09:04;;;;;;;;;;;6.30;57.20;;;4.68;61.55;101388.88;12254337;19;19926;-87
2023/12/07 01:13:06;;;;;;;;;;;6.30;57.20;;;4.58;61.36;101376.13;12256590;19;19981;-88
2023/12/07 01:17:07;;;;;;;;;;;6.30;57.20;;;4.66;61.53;101397.50;12256011;19;19915;-88
2023/12/07 01:21:09;;;;;;;;;;;6.30;57.20;;;4.55;61.32;101385.69;12254076;19;20393;-88
2023/12/07 01:25:10;;;;;;;;;;;6.30;57.20;;;4.66;61.46;101410.44;12253208;19;19907;-88
2023/12/07 01:29:13;;;;;;;;;;;6.30;57.20;;;4.62;61.64;101420.91;12255539;19;20321;-88
2023/12/07 01:33:15;;;;;;;;;;;6.30;57.20;;;4.60;61.41;101420.91;12253611;19;19915;-88
2023/12/07 01:37:16;;;;;;;;;;;6.30;57.20;;;4.59;61.57;101424.41;12254997;19;19926;-88
2023/12/07 01:41:18;;;;;;;;;;;6.30;57.20;;;4.62;61.45;101428.66;12251558;19;19919;-88
2023/12/07 01:45:20;;;;;;;;;;;6.30;57.30;;;4.66;61.68;101438.03;12254103;19;19970;-88
2023/12/07 01:49:22;;;;;;;;;;;6.30;57.20;;;4.59;61.57;101424.41;12252272;19;19926;-88
2023/12/07 01:53:24;;;;;;;;;;;6.30;57.20;;;4.61;61.63;101432.09;12251687;19;20350;-88
2023/12/07 01:57:26;;;;;;;;;;;6.30;57.20;;;4.56;61.59;101426.16;12252158;19;19918;-87
2023/12/07 02:01:28;;;;;;;;;;;6.30;57.30;;;4.51;61.40;101420.22;12249747;19;19915;-88
2023/12/07 02:05:31;;;;;;;;;;;6.30;57.20;;;4.58;61.62;101439.94;12249161;19;19927;-88
2023/12/07 02:09:33;;;;;;;;;;;6.30;57.60;;;4.65;61.57;101457.91;12249694;19;19919;-88
2023/12/07 02:13:38;;;;;;;;;;;6.30;57.20;;;4.61;61.62;101450.22;12251969;19;20648;-88
2023/12/07 02:17:57;;;;;;;;;;;6.50;57.30;;;4.65;61.61;101449.28;12249330;19;20344;-88
2023/12/07 02:22:01;;;;;;;;;;;6.30;57.20;;;4.58;61.49;101440.78;12248853;19;19915;-88
2023/12/07 02:26:06;;;;;;;;;;;6.30;57.20;;;4.64;61.55;101456.19;12249759;19;19925;-88
2023/12/07 02:30:09;;;;;;;;;;;6.30;57.20;;;4.40;61.44;101418.72;12250709;19;19906;-88
2023/12/07 02:34:11;;;;;;;;;;;6.20;57.20;;;4.56;61.47;101441.69;12250115;19;20258;-88
2023/12/07 02:38:12;;;;;;;;;;;6.30;57.20;;;4.35;61.66;101404.16;12247952;19;19923;-88
2023/12/07 02:42:14;;;;;;;;;;;6.20;57.20;;;4.59;61.62;101452.84;12245322;19;20060;-87
2023/12/07 02:46:16;;;;;;;;;;;6.40;57.30;;;4.49;61.57;101438.38;12246160;19;19923;-88
2023/12/07 02:50:17;;;;;;;;;;;6.30;57.30;;;4.57;61.51;101448.59;12248869;19;19919;-88
2023/12/07 02:54:19;;;;;;;;;;;6.20;57.20;;;4.38;61.51;101423.06;12248246;19;19923;-88
2023/12/07 02:58:20;;;;;;;;;;;6.50;57.30;;;4.56;61.45;101460.63;12251943;19;19950;-88
2023/12/07 03:02:21;;;;;;;;;;;6.20;57.20;;;4.59;61.48;101475.25;12246206;19;19986;-88
2023/12/07 03:06:23;;;;;;;;;;;6.30;57.30;;;4.60;61.67;101487.31;12248462;19;20266;-87
2023/12/07 03:10:24;;;;;;;;;;;6.30;57.30;;;4.40;61.61;101452.31;12248844;19;19919;-87
2023/12/07 03:14:25;;;;;;;;;;;6.50;57.40;;;4.50;61.52;101462.50;12248037;19;19919;-87
2023/12/07 03:18:27;;;;;;;;;;;6.50;57.40;;;4.37;61.50;101442.00;12246456;19;19918;-88
2023/12/07 03:22:28;;;;;;;;;;;6.30;57.30;;;4.59;61.53;101483.88;12245678;19;20311;-87
2023/12/07 03:26:30;;;;;;;;;;;6.30;57.30;;;4.63;61.47;101490.69;12246484;19;19927;-88
2023/12/07 03:30:31;;;;;;;;;;;6.40;57.30;;;4.39;61.45;101455.78;12245084;19;19917;-88
2023/12/07 03:34:33;;;;;;;;;;;6.30;57.30;;;4.50;61.53;101471.09;12248433;19;20080;-87
2023/12/07 03:38:35;;;;;;;;;;;6.30;57.30;;;4.55;61.69;101481.38;12246414;19;20368;-87
2023/12/07 03:42:37;;;;;;;;;;;6.20;57.20;;;4.59;61.74;101493.34;12247141;19;20266;-87
2023/12/07 03:46:38;;;;;;;;;;;6.30;57.30;;;4.39;61.69;101460.09;12245066;19;19907;-88
2023/12/07 03:50:40;;;;;;;;;;;6.30;57.20;;;4.41;61.75;101461.78;12244705;19;19986;-87
2023/12/07 03:54:42;;;;;;;;;;;6.30;57.20;;;4.55;61.50;101507.22;12250724;19;19939;-87
2023/12/07 03:58:43;;;;;;;;;;;6.20;57.20;;;4.49;61.50;101494.41;12258246;19;19911;-88
2023/12/07 04:02:45;;;;;;;;;;;6.30;57.20;;;4.57;61.56;101506.34;12257525;19;20294;-87
2023/12/07 04:06:48;;;;;;;;;;;6.20;57.20;;;4.39;61.70;101481.63;12255234;19;19918;-87
2023/12/07 04:10:49;;;;;;;;;;;6.30;57.20;;;4.52;61.56;101507.28;12254972;19;20246;-87
2023/12/07 04:14:51;;;;;;;;;;;6.30;57.30;;;4.60;61.51;101510.59;12256800;19;20546;-87
2023/12/07 04:18:53;;;;;;;;;;;6.30;57.30;;;4.52;61.72;101509.88;12258131;19;20333;-87
2023/12/07 04:22:55;;;;;;;;;;;6.50;57.30;;;4.57;61.55;101515.84;12257869;19;19975;-87
2023/12/07 04:26:56;;;;;;;;;;;6.30;57.20;;;4.61;61.62;101517.47;12258682;19;19970;-87
2023/12/07 04:30:58;;;;;;;;;;;6.50;57.30;;;4.50;61.54;101507.31;12253650;19;19943;-87
2023/12/07 04:35:00;;;;;;;;;;;6.20;57.20;;;4.34;61.60;101478.28;12257730;19;19915;-87
2023/12/07 04:39:01;;;;;;;;;;;6.30;57.20;;;4.60;61.55;101526.13;12257153;19;20279;-87
2023/12/07 04:43:03;;;;;;;;;;;6.20;57.10;;;4.50;61.48;101519.38;12258500;19;20312;-87
2023/12/07 04:47:05;;;;;;;;;;;6.20;57.10;;;4.54;61.52;101526.22;12257614;19;20261;-87
2023/12/07 04:51:06;;;;;;;;;;;6.20;57.20;;;4.57;61.51;101546.88;12252989;19;19944;-87
2023/12/07 04:55:08;;;;;;;;;;;6.20;57.20;;;4.53;61.64;101537.44;12257398;19;20407;-87
2023/12/07 04:59:10;;;;;;;;;;;6.20;57.20;;;4.31;61.87;101511.94;12256392;19;19978;-88
2023/12/07 05:03:11;;;;;;;;;;;6.50;57.30;;;4.51;61.68;101552.13;12254924;19;19932;-87
2023/12/07 05:07:13;;;;;;;;;;;6.20;57.20;;;4.58;61.72;101559.75;12253563;19;19911;-87
2023/12/07 05:11:15;;;;;;;;;;;6.20;57.20;;;4.40;61.64;101535.06;12252830;19;19919;-87
2023/12/07 05:15:17;;;;;;;;;;;6.50;57.40;;;4.38;61.70;101534.25;12253110;19;20633;-87
2023/12/07 05:19:23;;;;;;;;;;;6.20;57.20;;;4.54;61.71;101562.44;12255350;19;19911;-87
2023/12/07 05:23:24;;;;;;;;;;;6.30;57.20;;;4.48;61.78;101549.59;12254648;19;19922;-87
2023/12/07 05:27:26;;;;;;;;;;;6.20;57.20;;;4.58;61.71;101566.66;12256083;19;19910;-87
2023/12/07 05:31:28;;;;;;;;;;;6.20;57.20;;;4.53;61.51;101555.53;12247107;19;19940;-88
2023/12/07 05:35:29;;;;;;;;;;;6.20;57.20;;;4.44;61.47;101547.06;12254735;19;19987;-87
2023/12/07 05:39:31;;;;;;;;;;;6.20;57.20;;;4.32;61.64;101521.41;12246740;19;19998;-87
2023/12/07 05:43:33;;;;;;;;;;;6.30;57.20;;;4.35;61.45;101530.84;12251521;19;19919;-87
2023/12/07 05:47:36;;;;;;;;;;;6.20;57.20;;;4.40;61.64;101545.41;12248373;19;19949;-87
2023/12/07 05:51:38;;;;;;;;;;;6.20;57.20;;;4.49;61.66;101564.25;12248308;19;19903;-87
2023/12/07 05:55:39;;;;;;;;;;;6.20;57.20;;;4.42;61.57;101550.53;12251031;19;19943;-87
2023/12/07 05:59:43;;;;;;;;;;;6.20;57.20;;;4.57;61.72;101568.41;12251352;19;19946;-87
2023/12/07 06:03:45;;;;;;;;;;;6.20;57.30;;;4.45;61.48;101542.72;12253100;19;19922;-87
2023/12/07 06:07:46;;;;;;;;;;;6.20;57.20;;;4.57;61.71;101562.38;12251559;19;20331;-88
2023/12/07 06:11:48;;;;;;;;;;;6.20;57.20;;;4.56;61.50;101569.25;12249761;19;19978;-87
2023/12/07 06:15:50;;;;;;;;;;;6.20;57.20;;;4.46;61.61;101552.22;12252818;19;19923;-87
2023/12/07 06:19:51;;;;;;;;;;;6.20;57.30;;;4.57;61.75;101576.16;12251070;19;19931;-86
2023/12/07 06:23:52;;;;;;;;;;;6.20;57.30;;;4.48;61.53;101570.28;12249251;19;19919;-88
2023/12/07 06:27:56;;;;;;;;;;;6.30;57.30;;;4.55;61.81;101585.69;12249568;19;19922;-89
2023/12/07 06:31:57;;;;;;;;;;;6.20;57.30;;;4.26;61.59;101547.34;12247466;19;19932;-88
2023/12/07 06:35:59;;;;;;;;;;;6.20;57.20;;;4.48;61.72;101588.38;12250078;19;19966;-88
2023/12/07 06:40:00;;;;;;;;;;;6.40;57.30;;;4.43;61.58;101581.56;12245855;19;20321;-88
2023/12/07 06:44:02;;;;;;;;;;;6.30;57.20;;;4.53;61.70;101608.13;12248173;19;19915;-87
2023/12/07 06:48:05;;;;;;;;;;;6.30;57.20;;;4.52;61.49;101605.56;12248572;19;19923;-88
2023/12/07 06:52:07;;;;;;;;;;;6.20;57.20;;;4.40;61.65;101583.31;12246255;19;19936;-89
2023/12/07 06:56:08;;;;;;;;;;;6.20;57.20;;;4.50;61.61;101618.50;12248047;19;19918;-88
2023/12/07 07:00:10;;;;;;;;;;;6.20;57.20;;;4.52;61.66;101613.34;12247292;19;19950;-86
2023/12/07 07:04:11;;;;;;;;;;;6.20;57.20;;;4.34;61.80;101597.22;12246496;19;20361;-86
2023/12/07 07:08:13;;;;;;;;;;;6.20;57.20;;;4.56;61.77;101633.06;12249505;19;19915;-88
2023/12/07 07:12:15;;;;;;;;;;;6.20;57.30;;;4.46;61.67;101610.84;12247276;19;19932;-86
2023/12/07 07:16:17;;;;;;;;;;;6.20;57.30;;;4.33;61.87;101589.50;12246941;19;19922;-87
2023/12/07 07:20:18;;;;;;;;;;;6.20;57.30;;;4.33;61.89;101598.09;12247493;19;20314;-87
2023/12/07 07:24:20;;;;;;;;;;;6.20;57.30;;;4.48;61.67;101622.84;12247005;19;20256;-87
2023/12/07 07:28:21;;;;;;;;;;;6.30;57.30;;;4.34;61.63;101594.63;12249126;19;19933;-87
2023/12/07 07:32:23;;;;;;;;;;;6.20;57.30;;;4.57;61.61;101642.56;12263960;19;19940;-87
2023/12/07 07:36:24;;;;;;;;;;;6.20;57.30;;;4.48;61.87;101619.41;12270851;19;20239;-85
2023/12/07 07:40:26;;;;;;;;;;;6.20;57.30;;;4.48;61.80;101622.00;12268934;19;19919;-85
2023/12/07 07:44:27;;;;;;;;;;;6.20;57.30;;;4.32;61.84;101596.41;12269091;19;19914;-86
2023/12/07 07:48:29;;;;;;;;;;;6.30;57.30;;;4.60;61.70;101645.09;12270943;19;20341;-86
2023/12/07 07:52:35;;;;;;;;;;;6.30;57.30;;;4.57;61.85;101634.81;12265891;19;19925;-86
2023/12/07 07:56:36;;;;;;;;;;;6.30;57.30;;;4.56;61.72;101627.91;12270344;19;19982;-86
2023/12/07 08:00:38;;;;;;;;;;;6.30;57.40;;;4.62;61.84;101641.63;12267679;19;19936;-86
2023/12/07 08:04:40;;;;;;;;;;;6.30;57.40;;;4.27;61.67;101582.69;12270250;19;19919;-86
2023/12/07 08:08:42;;;;;;;;;;;6.30;57.40;;;4.62;61.88;101643.34;12268154;19;19919;-86
2023/12/07 08:12:43;;;;;;;;;;;6.30;57.40;;;4.64;61.86;101651.91;12270294;19;19978;-86
2023/12/07 08:16:46;;;;;;;;;;;6.50;57.50;;;4.65;61.86;101648.47;12265179;19;19970;-86
2023/12/07 08:20:47;;;;;;;;;;;6.30;57.40;;;4.62;61.70;101640.75;12268667;19;19926;-86
2023/12/07 08:24:49;;;;;;;;;;;6.30;57.40;;;4.48;61.72;101614.25;12269421;19;19923;-86
2023/12/07 08:28:53;;;;;;;;;;;6.30;57.40;;;4.64;61.90;101632.09;12267783;19;19919;-87
2023/12/07 08:32:55;;;;;;;;;;;6.30;57.40;;;4.69;61.67;101650.13;12268599;19;20005;-86
2023/12/07 08:36:57;;;;;;;;;;;6.40;57.50;;;4.54;61.78;101627.09;12268940;19;20334;-86
2023/12/07 08:40:58;;;;;;;;;;;6.40;57.40;;;4.63;61.72;101652.81;12257824;19;19918;-86
2023/12/07 08:45:00;;;;;;;;;;;6.30;57.40;;;4.73;61.68;101662.13;12253498;19;19918;-86
2023/12/07 08:49:01;;;;;;;;;;;6.40;57.50;;;4.47;61.89;101628.06;12254756;19;20353;-86
2023/12/07 08:53:03;;;;;;;;;;;6.40;57.50;;;4.61;61.87;101649.38;12255569;19;19915;-86
2023/12/07 08:57:04;;;;;;;;;;;6.40;57.50;;;4.63;61.82;101647.63;12255327;19;19936;-86
2023/12/07 09:01:06;;;;;;;;;;;6.40;57.50;;;4.75;61.75;101670.75;12252525;19;19953;-86
2023/12/07 09:05:09;;;;;;;;;;;6.40;57.50;;;4.57;61.74;101645.16;12253421;19;19919;-86
2023/12/07 09:09:11;;;;;;;;;;;6.40;57.50;;;4.81;61.75;101686.16;12253114;19;19933;-86
2023/12/07 09:13:13;;;;;;;;;;;6.50;57.50;;;4.53;61.76;101641.75;12255794;19;19914;-86
2023/12/07 09:17:15;;;;;;;;;;;6.80;57.60;;;4.54;61.86;101634.84;12254207;19;19955;-86
2023/12/07 09:21:16;;;;;;;;;;;6.50;57.50;;;4.81;61.81;101681.00;12252600;19;19923;-87
2023/12/07 09:25:18;;;;;;;;;;;6.50;57.50;;;4.78;61.82;101670.69;12250819;19;19918;-86
2023/12/07 09:29:20;;;;;;;;;;;6.50;57.50;;;4.75;61.68;101662.97;12252692;19;19951;-87
2023/12/07 09:33:21;;;;;;;;;;;6.50;57.50;;;4.65;61.76;101638.97;12252910;19;19919;-87
2023/12/07 09:37:23;;;;;;;;;;;6.80;57.70;;;4.87;61.73;101680.88;12254477;19;19925;-86
2023/12/07 09:41:26;;;;;;;;;;;6.50;57.50;;;4.73;61.67;101662.13;12248397;19;19911;-87
2023/12/07 09:45:29;;;;;;;;;;;6.60;57.60;;;4.85;61.78;101687.81;12250912;19;19914;-86
2023/12/07 09:49:30;;;;;;;;;;;6.60;57.60;;;4.82;61.69;101674.91;12250693;19;19907;-87
2023/12/07 09:53:34;;;;;;;;;;;6.50;57.90;;;4.91;61.94;101688.59;12252620;19;20338;-86
2023/12/07 09:57:39;;;;;;;;;;;6.60;57.60;;;4.92;61.95;101698.09;12251622;19;20309;-86
2023/12/07 10:01:41;;;;;;;;;;;6.60;57.60;;;4.97;61.76;101701.41;12248676;19;20269;-87
2023/12/07 10:05:59;;;;;;;;;;;6.60;57.60;;;4.93;61.77;101694.59;12249400;19;19919;-89
2023/12/07 10:10:02;;;;;;;;;;;6.60;57.60;;;4.85;61.96;101680.03;12249983;19;19918;-87
2023/12/07 10:14:05;;;;;;;;;;;6.80;57.70;;;5.01;61.83;101701.34;12251398;19;19982;-86
2023/12/07 10:18:07;;;;;;;;;;;6.60;57.60;;;4.89;61.91;101686.03;12251325;19;19971;-86
2023/12/07 10:22:15;;;;;;;;;;;6.60;57.60;;;4.96;61.81;101681.59;12246841;19;19918;-87
2023/12/07 10:26:20;;;;;;;;;;;6.70;57.70;;;5.02;61.93;101689.25;12247969;19;19923;-87
2023/12/07 10:30:25;;;;;;;;;;;6.70;57.70;;;5.04;61.84;101695.28;12247839;19;19923;-87
2023/12/07 10:34:27;;;;;;;;;;;7.00;57.80;;;5.04;61.80;101690.94;12250262;19;20334;-88
2023/12/07 10:38:28;;;;;;;;;;;6.70;57.60;;;5.04;61.92;101687.50;12248726;19;19918;-86
2023/12/07 10:42:32;;;;;;;;;;;6.70;57.60;;;5.05;61.93;101684.91;12249198;19;20326;-87
2023/12/07 10:46:38;;;;;;;;;;;6.80;57.70;;;5.02;61.93;101681.50;12245562;19;19927;-87
2023/12/07 10:50:45;;;;;;;;;;;6.70;57.60;;;5.15;61.93;101692.50;12248464;19;19918;-87
2023/12/07 10:54:59;;;;;;;;;;;6.80;57.60;;;5.14;61.92;101689.06;12249995;19;19926;-88
2023/12/07 10:59:01;;;;;;;;;;;6.80;57.70;;;5.10;61.76;101667.56;12248615;19;20312;-87
2023/12/07 11:03:03;;;;;;;;;;;6.80;57.70;;;5.14;61.84;101676.13;12247968;19;19922;-84
2023/12/07 11:07:09;;;;;;;;;;;6.80;57.60;;;5.19;61.82;101683.81;12243863;19;19918;-83
2023/12/07 11:11:17;;;;;;;;;;;6.80;57.60;;;5.21;61.75;101682.91;12247156;19;19918;-87
2023/12/07 11:15:19;;;;;;;;;;;6.90;57.70;;;5.19;62.01;101687.25;12247258;19;19938;-86
2023/12/07 11:19:29;;;;;;;;;;;6.90;57.70;;;5.23;62.01;101682.88;12247175;19;19919;-89
2023/12/07 11:23:31;;;;;;;;;;;6.90;57.70;;;5.13;61.99;101661.47;12247261;19;19918;-87
2023/12/07 11:27:33;;;;;;;;;;;7.00;57.70;;;5.21;62.01;101657.03;12250497;19;19919;-88
2023/12/07 11:31:34;;;;;;;;;;;6.90;57.60;;;5.27;61.78;101679.38;12245347;19;19926;-87
2023/12/07 11:36:01;;;;;;;;;;;7.10;57.70;;;5.28;61.83;101671.53;12248242;19;20249;-87
2023/12/07 11:40:03;;;;;;;;;;;6.90;57.70;;;5.23;61.91;101663.00;12245174;19;19931;-87
2023/12/07 11:44:05;;;;;;;;;;;6.90;57.60;;;5.23;62.12;101657.81;12244642;19;19919;-87
2023/12/07 11:48:13;;;;;;;;;;;6.90;57.60;;;5.27;61.79;101661.25;12245543;19;20274;-87
2023/12/07 11:52:21;;;;;;;;;;;6.90;57.60;;;5.29;61.79;101662.91;12243626;19;19922;-87
2023/12/07 11:56:22;;;;;;;;;;;6.90;57.60;;;5.27;61.83;101653.47;12247085;19;20002;-87
2023/12/07 12:00:25;;;;;;;;;;;6.90;57.60;;;5.30;61.83;101662.03;12242660;19;19918;-87
2023/12/07 12:04:28;;;;;;;;;;;6.90;57.60;;;5.33;61.79;101669.72;12242641;19;19915;-88
2023/12/07 12:08:30;;;;;;;;;;;7.00;57.60;;;5.33;61.79;101668.88;12245032;19;19926;-88
2023/12/07 12:12:35;;;;;;;;;;;7.00;57.60;;;5.18;61.81;101635.50;12245101;19;20249;-88
2023/12/07 12:16:37;;;;;;;;;;;7.00;57.60;;;5.32;61.85;101662.84;12250564;19;19930;-89
2023/12/07 12:20:38;;;;;;;;;;;6.90;57.60;;;5.26;61.99;101649.16;12253557;19;19939;-88
2023/12/07 12:24:41;;;;;;;;;;;7.00;57.70;;;5.26;61.87;101657.75;12247530;19;19923;-88
2023/12/07 12:28:43;;;;;;;;;;;7.00;57.60;;;5.30;61.84;101668.94;12255487;19;19915;-88
2023/12/07 12:32:45;;;;;;;;;;;6.90;57.60;;;5.28;61.78;101656.00;12255316;19;19927;-89
2023/12/07 12:36:47;;;;;;;;;;;7.20;57.70;;;5.11;61.93;101629.59;12257018;19;19954;-87
2023/12/07 12:40:50;;;;;;;;;;;7.00;57.60;;;5.37;61.94;101677.44;12252106;19;20321;-88
2023/12/07 12:44:52;;;;;;;;;;;7.00;57.60;;;5.31;61.91;101661.13;12254558;19;19930;-87
2023/12/07 12:48:55;;;;;;;;;;;7.00;57.70;;;5.37;61.97;101673.09;12254905;19;19920;-88
2023/12/07 12:52:58;;;;;;;;;;;7.00;57.60;;;5.33;61.73;101674.06;12257566;19;19923;-86
2023/12/07 12:56:59;;;;;;;;;;;7.00;57.60;;;5.33;61.81;101661.13;12255030;19;19919;-86
2023/12/07 13:01:03;;;;;;;;;;;7.00;57.60;;;5.33;61.81;101653.34;12251445;19;19952;-87
2023/12/07 13:05:06;;;;;;;;;;;7.00;57.60;;;5.29;61.99;101656.84;12251732;19;19948;-87
2023/12/07 13:09:08;;;;;;;;;;;7.00;57.60;;;5.33;61.83;101653.34;12253769;19;19921;-86
2023/12/07 13:13:10;;;;;;;;;;;7.00;57.60;;;5.40;61.96;101651.47;12246375;19;19929;-84
2023/12/07 13:17:12;;;;;;;;;;;7.00;57.60;;;5.40;61.95;101656.66;12252975;19;19923;-85
2023/12/07 13:21:15;;;;;;;;;;;7.00;57.60;;;5.39;61.81;101660.16;12251360;19;19915;-85
2023/12/07 13:25:16;;;;;;;;;;;7.00;57.60;;;5.06;61.98;101597.75;12254722;19;19940;-85
2023/12/07 13:29:18;;;;;;;;;;;7.00;57.60;;;5.41;61.99;101667.00;12251640;19;19918;-84
2023/12/07 13:33:20;;;;;;;;;;;7.00;57.60;;;5.29;61.85;101646.50;12255570;19;19918;-85
2023/12/07 13:37:22;;;;;;;;;;;7.00;57.60;;;5.37;61.85;101651.53;12254919;19;19986;-85
2023/12/07 13:41:23;;;;;;;;;;;7.00;57.60;;;5.38;61.87;101651.53;12251480;19;19970;-86
2023/12/07 13:45:24;;;;;;;;;;;7.00;57.60;;;5.34;61.89;101642.09;12251459;19;19947;-85
2023/12/07 13:49:26;;;;;;;;;;;7.10;57.70;;;5.33;61.91;101643.84;12251413;19;19903;-89
2023/12/07 13:53:28;;;;;;;;;;;7.10;57.70;;;5.30;62.05;101638.72;12253368;19;19930;-87
2023/12/07 13:57:29;;;;;;;;;;;7.10;57.70;;;5.45;62.06;101672.97;12250381;19;19974;-87
2023/12/07 14:01:31;;;;;;;;;;;7.10;57.60;;;5.45;61.83;101683.34;12240080;19;19911;-87
2023/12/07 14:05:33;;;;;;;;;;;7.10;57.60;;;5.39;61.85;101673.94;12248579;19;19911;-87
2023/12/07 14:09:34;;;;;;;;;;;7.00;57.60;;;5.43;61.90;101687.72;12241774;19;19922;-87
2023/12/07 14:13:35;;;;;;;;;;;7.10;57.60;;;5.31;61.86;101670.63;12244840;19;19910;-87
2023/12/07 14:17:40;;;;;;;;;;;7.10;57.60;;;5.39;62.06;101688.63;12245203;19;19991;-87
2023/12/07 14:21:42;;;;;;;;;;;7.00;57.60;;;5.30;61.97;101682.75;12243293;19;19925;-87
2023/12/07 14:25:46;;;;;;;;;;;7.00;57.60;;;5.36;62.01;101696.47;12242501;19;20261;-87
2023/12/07 14:29:47;;;;;;;;;;;7.00;57.50;;;5.11;62.00;101655.47;12242825;19;20419;-87
2023/12/07 14:33:50;;;;;;;;;;;7.00;57.60;;;5.28;62.00;101687.09;12241106;19;19923;-87
2023/12/07 14:37:52;;;;;;;;;;;7.10;57.60;;;5.16;62.05;101656.25;12239880;19;19915;-87
2023/12/07 14:41:53;;;;;;;;;;;7.00;57.60;;;5.37;61.95;101690.41;12236033;19;19923;-87
2023/12/07 14:45:55;;;;;;;;;;;7.00;57.60;;;5.35;61.90;101689.56;12241699;19;20428;-87
2023/12/07 14:49:57;;;;;;;;;;;7.00;57.50;;;5.37;61.76;101690.41;12243634;19;19932;-87
2023/12/07 14:53:58;;;;;;;;;;;7.00;57.50;;;5.26;61.66;101675.91;12244632;19;19932;-87
2023/12/07 14:57:59;;;;;;;;;;;7.00;57.50;;;5.32;61.63;101672.38;12242548;19;19957;-87
2023/12/07 15:02:01;;;;;;;;;;;6.90;57.40;;;5.24;61.87;101677.69;12239854;19;19918;-87
2023/12/07 15:06:02;;;;;;;;;;;7.00;57.40;;;5.27;61.73;101679.38;12242389;19;19953;-87
2023/12/07 15:10:04;;;;;;;;;;;6.90;57.50;;;5.25;61.77;101687.16;12241738;19;19932;-87
2023/12/07 15:14:05;;;;;;;;;;;6.90;57.50;;;5.24;62.02;101688.03;12235277;19;19923;-87
2023/12/07 15:18:07;;;;;;;;;;;6.90;57.50;;;5.28;61.87;101692.25;12239913;19;19962;-87
2023/12/07 15:22:09;;;;;;;;;;;6.90;57.50;;;5.25;61.85;101692.31;12236942;19;19919;-87
2023/12/07 15:26:11;;;;;;;;;;;6.90;57.50;;;5.27;61.80;101700.94;12241524;19;19911;-87
2023/12/07 15:30:13;;;;;;;;;;;6.90;57.60;;;5.20;61.78;101688.09;12242043;19;19982;-87
2023/12/07 15:34:14;;;;;;;;;;;6.90;57.60;;;5.04;61.74;101652.13;12237609;19;19918;-87
2023/12/07 15:38:15;;;;;;;;;;;6.90;57.60;;;5.22;61.89;101684.63;12241645;19;19976;-87
2023/12/07 15:42:17;;;;;;;;;;;6.90;57.50;;;5.12;61.73;101661.50;12237334;19;20315;-87
2023/12/07 15:46:18;;;;;;;;;;;6.90;57.60;;;5.17;61.87;101662.28;12239034;19;19915;-87
2023/12/07 15:50:19;;;;;;;;;;;6.90;57.50;;;5.14;61.71;101662.34;12238760;19;19915;-87
2023/12/07 15:54:21;;;;;;;;;;;6.90;57.50;;;5.18;61.92;101662.22;12253221;19;19915;-87
2023/12/07 15:58:22;;;;;;;;;;;6.80;57.50;;;5.16;61.73;101660.53;12254580;19;20325;-87
2023/12/07 16:02:23;;;;;;;;;;;7.00;57.60;;;5.23;61.96;101677.69;12247163;19;19936;-87
2023/12/07 16:06:25;;;;;;;;;;;6.80;57.50;;;5.06;62.00;101649.53;12248891;19;19919;-87
2023/12/07 16:10:27;;;;;;;;;;;6.80;57.50;;;5.09;61.92;101647.72;12248816;19;19946;-87
2023/12/07 16:14:28;;;;;;;;;;;6.80;57.50;;;5.15;61.74;101657.09;12243312;19;19953;-87
2023/12/07 16:18:29;;;;;;;;;;;6.80;57.60;;;5.17;61.92;101657.94;12250443;19;20346;-88
2023/12/07 16:22:31;;;;;;;;;;;6.80;57.50;;;4.92;61.91;101628.22;12248471;19;19932;-87
2023/12/07 16:26:32;;;;;;;;;;;6.80;57.50;;;5.20;61.93;101665.66;12246553;19;19949;-87
2023/12/07 16:30:33;;;;;;;;;;;6.80;57.60;;;5.08;61.95;101640.00;12247949;19;19932;-87
2023/12/07 16:34:35;;;;;;;;;;;6.80;57.60;;;5.13;61.86;101650.25;12250467;19;20334;-87
2023/12/07 16:38:40;;;;;;;;;;;6.80;57.60;;;5.16;61.96;101665.72;12248460;19;20384;-87
2023/12/07 16:42:42;;;;;;;;;;;6.80;57.60;;;5.20;61.99;101675.16;12250675;19;19929;-87
2023/12/07 16:46:44;;;;;;;;;;;7.00;57.70;;;5.08;61.93;101650.34;12246621;19;19918;-87
2023/12/07 16:50:48;;;;;;;;;;;6.90;57.60;;;5.20;62.00;101672.56;12247031;19;20420;-87
2023/12/07 16:54:49;;;;;;;;;;;6.80;57.60;;;5.15;62.02;101666.63;12250155;19;20321;-87
2023/12/07 16:58:51;;;;;;;;;;;6.80;57.60;;;5.14;61.82;101668.34;12249970;19;19933;-87
2023/12/07 17:02:52;;;;;;;;;;;6.80;57.60;;;5.19;61.98;101673.47;12245688;19;19918;-88
2023/12/07 17:06:53;;;;;;;;;;;6.80;57.50;;;5.12;61.87;101659.75;12247019;19;20263;-87
2023/12/07 17:10:55;;;;;;;;;;;6.80;57.50;;;5.08;61.83;101660.72;12246702;19;20326;-88
2023/12/07 17:14:56;;;;;;;;;;;6.80;57.50;;;5.18;62.04;101682.94;12247009;19;19922;-87
2023/12/07 17:18:58;;;;;;;;;;;6.80;57.50;;;5.18;62.01;101690.72;12247426;19;20018;-87
2023/12/07 17:22:59;;;;;;;;;;;6.80;57.60;;;5.17;61.83;101693.34;12250027;19;19966;-87
2023/12/07 17:27:00;;;;;;;;;;;6.90;57.60;;;5.13;61.93;101687.38;12243679;19;19919;-87
2023/12/07 17:31:02;;;;;;;;;;;6.80;57.60;;;5.11;61.82;101676.19;12247287;19;19934;-87
2023/12/07 17:35:03;;;;;;;;;;;6.80;57.60;;;5.14;62.02;101683.03;12250024;19;19914;-87
2023/12/07 17:39:05;;;;;;;;;;;6.80;57.60;;;5.05;61.82;101682.31;12246318;19;20430;-87
2023/12/07 17:43:06;;;;;;;;;;;6.80;57.60;;;5.17;62.02;101707.13;12249960;19;19930;-87
2023/12/07 17:47:08;;;;;;;;;;;6.80;57.60;;;4.87;61.94;101661.91;12243738;19;19963;-87
2023/12/07 17:51:09;;;;;;;;;;;6.70;57.60;;;5.02;62.00;101694.44;12245080;19;19915;-87
2023/12/07 17:55:10;;;;;;;;;;;6.80;57.60;;;4.95;61.75;101687.69;12246548;19;19919;-87
2023/12/07 17:59:12;;;;;;;;;;;7.10;57.80;;;5.18;61.82;101732.13;12247593;19;19925;-87
2023/12/07 18:03:15;;;;;;;;;;;6.80;57.70;;;5.12;61.80;101727.06;12248663;19;20289;-87
2023/12/07 18:07:16;;;;;;;;;;;6.80;57.70;;;5.17;61.75;101721.81;12241817;19;20337;-87
2023/12/07 18:11:20;;;;;;;;;;;6.70;57.60;;;5.16;61.73;101702.84;12246233;19;19907;-87
2023/12/07 18:15:21;;;;;;;;;;;6.80;57.60;;;5.14;61.94;101699.44;12246668;19;19923;-87
2023/12/07 18:19:22;;;;;;;;;;;6.70;57.50;;;5.06;61.90;101681.44;12245074;19;19922;-87
2023/12/07 18:23:24;;;;;;;;;;;6.70;57.50;;;5.02;61.97;101673.72;12245102;19;20412;-88
2023/12/07 18:27:25;;;;;;;;;;;6.70;57.50;;;5.04;61.84;101682.34;12241916;19;20259;-87
2023/12/07 18:31:27;;;;;;;;;;;6.70;57.60;;;5.03;61.60;101675.47;12242835;19;19927;-87